sensor_id;sensor_type;location;lat;lon;timestamp;P1;durP1;ratioP1;P2;durP2;ratioP2
13255;SDS011;37913;48.370;10.930;2023-04-03T00:01:40;77.70;;;32.77;;
13255;SDS011;37913;48.370;10.930;2023-04-03T00:04:07;74.97;;;32.33;;
13255;SDS011;37913;48.370;10.930;2023-04-03T00:06:34;84.30;;;34.70;;
13255;SDS011;37913;48.370;10.930;2023-04-03T00:09:01;73.83;;;32.37;;
13255;SDS011;37913;48.370;10.930;2023-04-03T00:11:28;81.05;;;33.45;;
13255;SDS011;37913;48.370;10.930;2023-04-03T00:13:55;72.77;;;31.30;;
13255;SDS011;37913;48.370;10.930;2023-04-03T00:16:22;79.67;;;33.47;;
13255;SDS011;37913;48.370;10.930;2023-04-03T00:18:50;95.70;;;36.63;;
13255;SDS011;37913;48.370;10.930;2023-04-03T00:21:17;94.22;;;36.75;;
13255;SDS011;37913;48.370;10.930;2023-04-03T00:23:44;84.73;;;34.43;;
13255;SDS011;37913;48.370;10.930;2023-04-03T00:26:11;79.03;;;32.77;;
13255;SDS011;37913;48.370;10.930;2023-04-03T00:28:38;89.80;;;35.33;;
13255;SDS011;37913;48.370;10.930;2023-04-03T00:31:05;79.40;;;33.30;;
13255;SDS011;37913;48.370;10.930;2023-04-03T00:33:32;84.18;;;33.83;;
13255;SDS011;37913;48.370;10.930;2023-04-03T00:36:01;85.13;;;34.13;;
13255;SDS011;37913;48.370;10.930;2023-04-03T00:38:32;75.23;;;32.23;;
13255;SDS011;37913;48.370;10.930;2023-04-03T00:40:58;95.50;;;36.50;;
13255;SDS011;37913;48.370;10.930;2023-04-03T00:43:25;78.90;;;32.77;;
13255;SDS011;37913;48.370;10.930;2023-04-03T00:45:53;82.30;;;33.77;;
13255;SDS011;37913;48.370;10.930;2023-04-03T00:48:22;84.23;;;33.67;;
13255;SDS011;37913;48.370;10.930;2023-04-03T00:50:51;78.30;;;32.97;;
13255;SDS011;37913;48.370;10.930;2023-04-03T00:53:21;81.90;;;33.47;;
13255;SDS011;37913;48.370;10.930;2023-04-03T00:55:50;75.25;;;31.85;;
13255;SDS011;37913;48.370;10.930;2023-04-03T00:58:18;75.25;;;32.00;;
13255;SDS011;37913;48.370;10.930;2023-04-03T01:00:49;66.33;;;29.83;;
13255;SDS011;37913;48.370;10.930;2023-04-03T01:03:22;80.47;;;33.33;;
13255;SDS011;37913;48.370;10.930;2023-04-03T01:05:49;75.47;;;32.13;;
13255;SDS011;37913;48.370;10.930;2023-04-03T01:08:17;72.20;;;31.37;;
13255;SDS011;37913;48.370;10.930;2023-04-03T01:10:45;76.43;;;32.07;;
13255;SDS011;37913;48.370;10.930;2023-04-03T01:13:23;72.97;;;31.77;;
13255;SDS011;37913;48.370;10.930;2023-04-03T01:15:51;86.83;;;34.17;;
13255;SDS011;37913;48.370;10.930;2023-04-03T01:18:18;82.38;;;32.75;;
13255;SDS011;37913;48.370;10.930;2023-04-03T01:23:43;74.27;;;31.57;;
13255;SDS011;37913;48.370;10.930;2023-04-03T01:26:19;77.83;;;32.37;;
13255;SDS011;37913;48.370;10.930;2023-04-03T01:28:46;74.23;;;31.53;;
13255;SDS011;37913;48.370;10.930;2023-04-03T01:31:15;82.33;;;33.23;;
13255;SDS011;37913;48.370;10.930;2023-04-03T01:33:48;69.93;;;31.23;;
13255;SDS011;37913;48.370;10.930;2023-04-03T01:36:16;81.22;;;33.40;;
13255;SDS011;37913;48.370;10.930;2023-04-03T01:38:45;79.00;;;32.63;;
13255;SDS011;37913;48.370;10.930;2023-04-03T01:41:13;73.93;;;31.63;;
13255;SDS011;37913;48.370;10.930;2023-04-03T01:43:40;79.17;;;32.73;;
13255;SDS011;37913;48.370;10.930;2023-04-03T01:46:07;89.67;;;34.67;;
13255;SDS011;37913;48.370;10.930;2023-04-03T01:48:34;78.53;;;32.83;;
13255;SDS011;37913;48.370;10.930;2023-04-03T01:51:02;72.23;;;30.60;;
13255;SDS011;37913;48.370;10.930;2023-04-03T01:53:29;78.88;;;32.53;;
13255;SDS011;37913;48.370;10.930;2023-04-03T01:55:56;79.93;;;33.13;;
13255;SDS011;37913;48.370;10.930;2023-04-03T01:58:23;73.60;;;31.50;;
13255;SDS011;37913;48.370;10.930;2023-04-03T02:00:50;80.60;;;33.17;;
13255;SDS011;37913;48.370;10.930;2023-04-03T02:03:17;76.63;;;32.07;;
13255;SDS011;37913;48.370;10.930;2023-04-03T02:05:44;77.50;;;32.53;;
13255;SDS011;37913;48.370;10.930;2023-04-03T02:08:13;81.47;;;32.87;;
13255;SDS011;37913;48.370;10.930;2023-04-03T02:10:43;74.47;;;31.67;;
13255;SDS011;37913;48.370;10.930;2023-04-03T02:13:10;84.07;;;33.57;;
13255;SDS011;37913;48.370;10.930;2023-04-03T02:15:37;77.40;;;32.30;;
13255;SDS011;37913;48.370;10.930;2023-04-03T02:18:05;83.28;;;33.45;;
13255;SDS011;37913;48.370;10.930;2023-04-03T02:20:32;77.73;;;32.37;;
13255;SDS011;37913;48.370;10.930;2023-04-03T02:22:59;78.47;;;32.67;;
13255;SDS011;37913;48.370;10.930;2023-04-03T02:25:28;82.70;;;33.10;;
13255;SDS011;37913;48.370;10.930;2023-04-03T02:27:56;76.40;;;32.40;;
13255;SDS011;37913;48.370;10.930;2023-04-03T02:30:23;90.37;;;34.57;;
13255;SDS011;37913;48.370;10.930;2023-04-03T02:32:50;83.87;;;33.47;;
13255;SDS011;37913;48.370;10.930;2023-04-03T02:35:17;75.13;;;32.00;;
13255;SDS011;37913;48.370;10.930;2023-04-03T02:37:44;74.73;;;31.50;;
13255;SDS011;37913;48.370;10.930;2023-04-03T02:40:11;76.45;;;32.28;;
13255;SDS011;37913;48.370;10.930;2023-04-03T02:42:39;74.13;;;31.73;;
13255;SDS011;37913;48.370;10.930;2023-04-03T02:45:06;73.97;;;31.70;;
13255;SDS011;37913;48.370;10.930;2023-04-03T02:47:33;67.83;;;30.43;;
13255;SDS011;37913;48.370;10.930;2023-04-03T02:50:00;85.83;;;34.07;;
13255;SDS011;37913;48.370;10.930;2023-04-03T02:52:27;75.07;;;31.93;;
13255;SDS011;37913;48.370;10.930;2023-04-03T02:54:54;109.97;;;38.60;;
13255;SDS011;37913;48.370;10.930;2023-04-03T02:57:21;77.67;;;32.27;;
13255;SDS011;37913;48.370;10.930;2023-04-03T02:59:49;73.38;;;31.20;;
13255;SDS011;37913;48.370;10.930;2023-04-03T03:02:16;85.43;;;33.70;;
13255;SDS011;37913;48.370;10.930;2023-04-03T03:04:44;81.30;;;32.65;;
13255;SDS011;37913;48.370;10.930;2023-04-03T03:07:11;84.53;;;33.47;;
13255;SDS011;37913;48.370;10.930;2023-04-03T03:09:38;77.83;;;32.47;;
13255;SDS011;37913;48.370;10.930;2023-04-03T03:12:05;77.27;;;31.33;;
13255;SDS011;37913;48.370;10.930;2023-04-03T03:14:32;81.00;;;32.67;;
13255;SDS011;37913;48.370;10.930;2023-04-03T03:17:00;86.22;;;34.08;;
13255;SDS011;37913;48.370;10.930;2023-04-03T03:19:27;73.97;;;31.83;;
13255;SDS011;37913;48.370;10.930;2023-04-03T03:21:54;74.07;;;31.70;;
13255;SDS011;37913;48.370;10.930;2023-04-03T03:24:22;75.60;;;31.57;;
13255;SDS011;37913;48.370;10.930;2023-04-03T03:26:49;77.57;;;31.88;;
13255;SDS011;37913;48.370;10.930;2023-04-03T03:29:15;78.17;;;32.27;;
13255;SDS011;37913;48.370;10.930;2023-04-03T03:31:42;82.37;;;33.40;;
13255;SDS011;37913;48.370;10.930;2023-04-03T03:34:11;73.60;;;31.63;;
13255;SDS011;37913;48.370;10.930;2023-04-03T03:36:38;76.33;;;32.03;;
13255;SDS011;37913;48.370;10.930;2023-04-03T03:39:05;78.88;;;33.08;;
13255;SDS011;37913;48.370;10.930;2023-04-03T03:41:32;75.43;;;31.80;;
13255;SDS011;37913;48.370;10.930;2023-04-03T03:43:59;76.43;;;32.30;;
13255;SDS011;37913;48.370;10.930;2023-04-03T03:46:26;83.47;;;33.42;;
13255;SDS011;37913;48.370;10.930;2023-04-03T03:48:53;76.43;;;32.77;;
13255;SDS011;37913;48.370;10.930;2023-04-03T03:51:21;72.03;;;31.13;;
13255;SDS011;37913;48.370;10.930;2023-04-03T03:53:48;72.57;;;31.07;;
13255;SDS011;37913;48.370;10.930;2023-04-03T03:56:15;73.17;;;31.17;;
13255;SDS011;37913;48.370;10.930;2023-04-03T03:58:41;82.40;;;33.33;;
13255;SDS011;37913;48.370;10.930;2023-04-03T04:01:08;89.27;;;34.53;;
13255;SDS011;37913;48.370;10.930;2023-04-03T04:03:35;81.63;;;32.93;;
13255;SDS011;37913;48.370;10.930;2023-04-03T04:06:02;80.13;;;32.83;;
13255;SDS011;37913;48.370;10.930;2023-04-03T04:08:31;82.23;;;33.23;;
13255;SDS011;37913;48.370;10.930;2023-04-03T04:10:58;89.07;;;34.27;;
13255;SDS011;37913;48.370;10.930;2023-04-03T04:13:25;80.00;;;33.03;;
13255;SDS011;37913;48.370;10.930;2023-04-03T04:15:51;80.23;;;33.03;;
13255;SDS011;37913;48.370;10.930;2023-04-03T04:18:18;72.30;;;31.50;;
13255;SDS011;37913;48.370;10.930;2023-04-03T04:20:47;74.53;;;31.67;;
13255;SDS011;37913;48.370;10.930;2023-04-03T04:23:15;70.80;;;31.07;;
13255;SDS011;37913;48.370;10.930;2023-04-03T04:25:45;91.20;;;35.47;;
13255;SDS011;37913;48.370;10.930;2023-04-03T04:28:12;77.37;;;32.03;;
13255;SDS011;37913;48.370;10.930;2023-04-03T04:30:39;80.83;;;32.63;;
13255;SDS011;37913;48.370;10.930;2023-04-03T04:33:06;81.20;;;32.90;;
13255;SDS011;37913;48.370;10.930;2023-04-03T04:35:33;66.70;;;30.40;;
13255;SDS011;37913;48.370;10.930;2023-04-03T04:38:00;70.67;;;31.13;;
13255;SDS011;37913;48.370;10.930;2023-04-03T04:40:27;85.10;;;34.17;;
13255;SDS011;37913;48.370;10.930;2023-04-03T04:42:56;82.57;;;33.87;;
13255;SDS011;37913;48.370;10.930;2023-04-03T04:45:23;90.23;;;35.03;;
13255;SDS011;37913;48.370;10.930;2023-04-03T04:47:50;77.40;;;32.40;;
13255;SDS011;37913;48.370;10.930;2023-04-03T04:50:18;85.17;;;33.60;;
13255;SDS011;37913;48.370;10.930;2023-04-03T04:52:45;88.10;;;34.73;;
13255;SDS011;37913;48.370;10.930;2023-04-03T04:55:11;69.70;;;31.10;;
13255;SDS011;37913;48.370;10.930;2023-04-03T04:57:38;66.90;;;29.80;;
13255;SDS011;37913;48.370;10.930;2023-04-03T05:00:07;87.07;;;34.53;;
13255;SDS011;37913;48.370;10.930;2023-04-03T05:02:37;79.63;;;32.63;;
13255;SDS011;37913;48.370;10.930;2023-04-03T05:05:04;76.73;;;32.43;;
13255;SDS011;37913;48.370;10.930;2023-04-03T05:07:31;79.93;;;32.87;;
13255;SDS011;37913;48.370;10.930;2023-04-03T05:09:58;74.23;;;32.00;;
13255;SDS011;37913;48.370;10.930;2023-04-03T05:12:25;73.10;;;32.10;;
13255;SDS011;37913;48.370;10.930;2023-04-03T05:14:52;89.07;;;34.07;;
13255;SDS011;37913;48.370;10.930;2023-04-03T05:17:20;75.97;;;31.97;;
13255;SDS011;37913;48.370;10.930;2023-04-03T05:19:47;73.63;;;32.00;;
13255;SDS011;37913;48.370;10.930;2023-04-03T05:22:14;87.27;;;34.80;;
13255;SDS011;37913;48.370;10.930;2023-04-03T05:24:41;80.20;;;33.00;;
13255;SDS011;37913;48.370;10.930;2023-04-03T05:27:08;76.33;;;32.43;;
13255;SDS011;37913;48.370;10.930;2023-04-03T05:29:34;69.03;;;30.77;;
13255;SDS011;37913;48.370;10.930;2023-04-03T05:32:01;85.97;;;38.27;;
13255;SDS011;37913;48.370;10.930;2023-04-03T05:34:30;87.07;;;35.00;;
13255;SDS011;37913;48.370;10.930;2023-04-03T05:36:57;85.73;;;33.87;;
13255;SDS011;37913;48.370;10.930;2023-04-03T05:39:25;104.57;;;38.23;;
13255;SDS011;37913;48.370;10.930;2023-04-03T05:41:53;93.83;;;35.83;;
13255;SDS011;37913;48.370;10.930;2023-04-03T05:44:20;87.97;;;34.87;;
13255;SDS011;37913;48.370;10.930;2023-04-03T05:46:47;82.20;;;33.83;;
13255;SDS011;37913;48.370;10.930;2023-04-03T05:49:13;84.53;;;34.00;;
13255;SDS011;37913;48.370;10.930;2023-04-03T05:51:42;80.20;;;33.10;;
13255;SDS011;37913;48.370;10.930;2023-04-03T05:54:11;80.17;;;32.90;;
13255;SDS011;37913;48.370;10.930;2023-04-03T05:56:42;81.67;;;32.83;;
13255;SDS011;37913;48.370;10.930;2023-04-03T05:59:09;79.57;;;32.80;;
13255;SDS011;37913;48.370;10.930;2023-04-03T06:01:36;73.23;;;31.70;;
13255;SDS011;37913;48.370;10.930;2023-04-03T06:04:03;78.60;;;32.83;;
13255;SDS011;37913;48.370;10.930;2023-04-03T06:06:45;80.43;;;33.53;;
13255;SDS011;37913;48.370;10.930;2023-04-03T06:09:13;81.20;;;33.07;;
13255;SDS011;37913;48.370;10.930;2023-04-03T06:11:41;91.70;;;35.40;;
13255;SDS011;37913;48.370;10.930;2023-04-03T06:14:08;75.40;;;32.63;;
13255;SDS011;37913;48.370;10.930;2023-04-03T06:16:36;69.27;;;31.43;;
13255;SDS011;37913;48.370;10.930;2023-04-03T06:19:03;79.20;;;32.90;;
13255;SDS011;37913;48.370;10.930;2023-04-03T06:21:32;73.67;;;32.20;;
13255;SDS011;37913;48.370;10.930;2023-04-03T06:24:02;83.63;;;34.50;;
13255;SDS011;37913;48.370;10.930;2023-04-03T06:26:30;72.43;;;31.90;;
13255;SDS011;37913;48.370;10.930;2023-04-03T06:28:57;77.13;;;32.57;;
13255;SDS011;37913;48.370;10.930;2023-04-03T06:31:24;74.20;;;31.80;;
13255;SDS011;37913;48.370;10.930;2023-04-03T06:33:51;72.80;;;32.07;;
13255;SDS011;37913;48.370;10.930;2023-04-03T06:36:18;72.85;;;31.95;;
13255;SDS011;37913;48.370;10.930;2023-04-03T06:38:46;75.60;;;32.40;;
13255;SDS011;37913;48.370;10.930;2023-04-03T06:41:14;72.22;;;31.85;;
13255;SDS011;37913;48.370;10.930;2023-04-03T06:43:42;77.03;;;33.42;;
13255;SDS011;37913;48.370;10.930;2023-04-03T06:46:12;70.65;;;31.27;;
13255;SDS011;37913;48.370;10.930;2023-04-03T06:48:41;80.57;;;34.03;;
13255;SDS011;37913;48.370;10.930;2023-04-03T06:51:12;66.95;;;30.67;;
13255;SDS011;37913;48.370;10.930;2023-04-03T06:53:44;82.30;;;34.20;;
13255;SDS011;37913;48.370;10.930;2023-04-03T06:56:12;94.43;;;36.85;;
13255;SDS011;37913;48.370;10.930;2023-04-03T06:58:41;96.45;;;36.75;;
13255;SDS011;37913;48.370;10.930;2023-04-03T07:01:09;80.82;;;33.70;;
13255;SDS011;37913;48.370;10.930;2023-04-03T07:03:38;81.70;;;34.50;;
13255;SDS011;37913;48.370;10.930;2023-04-03T07:06:05;86.65;;;35.85;;
13255;SDS011;37913;48.370;10.930;2023-04-03T07:08:36;86.78;;;35.90;;
13255;SDS011;37913;48.370;10.930;2023-04-03T07:11:03;75.57;;;33.38;;
13255;SDS011;37913;48.370;10.930;2023-04-03T07:13:31;78.47;;;33.80;;
13255;SDS011;37913;48.370;10.930;2023-04-03T07:16:00;94.80;;;37.20;;
13255;SDS011;37913;48.370;10.930;2023-04-03T07:18:29;79.85;;;34.33;;
13255;SDS011;37913;48.370;10.930;2023-04-03T07:20:56;76.82;;;34.22;;
13255;SDS011;37913;48.370;10.930;2023-04-03T07:23:24;78.55;;;33.88;;
13255;SDS011;37913;48.370;10.930;2023-04-03T07:25:51;85.35;;;34.97;;
13255;SDS011;37913;48.370;10.930;2023-04-03T07:28:19;80.70;;;34.78;;
13255;SDS011;37913;48.370;10.930;2023-04-03T07:30:48;88.00;;;36.40;;
13255;SDS011;37913;48.370;10.930;2023-04-03T07:33:18;82.93;;;35.05;;
13255;SDS011;37913;48.370;10.930;2023-04-03T07:35:46;80.40;;;34.42;;
13255;SDS011;37913;48.370;10.930;2023-04-03T07:38:15;81.05;;;34.72;;
13255;SDS011;37913;48.370;10.930;2023-04-03T07:40:45;81.43;;;34.92;;
13255;SDS011;37913;48.370;10.930;2023-04-03T07:43:12;72.05;;;33.10;;
13255;SDS011;37913;48.370;10.930;2023-04-03T07:45:40;80.65;;;34.90;;
13255;SDS011;37913;48.370;10.930;2023-04-03T07:48:08;71.28;;;32.13;;
13255;SDS011;37913;48.370;10.930;2023-04-03T07:50:37;77.22;;;34.67;;
13255;SDS011;37913;48.370;10.930;2023-04-03T07:53:07;76.38;;;33.33;;
13255;SDS011;37913;48.370;10.930;2023-04-03T07:55:35;80.38;;;34.30;;
13255;SDS011;37913;48.370;10.930;2023-04-03T07:58:08;83.57;;;34.72;;
13255;SDS011;37913;48.370;10.930;2023-04-03T08:00:35;79.03;;;33.67;;
13255;SDS011;37913;48.370;10.930;2023-04-03T08:03:03;84.65;;;35.42;;
13255;SDS011;37913;48.370;10.930;2023-04-03T08:05:30;86.82;;;36.08;;
13255;SDS011;37913;48.370;10.930;2023-04-03T08:08:04;76.15;;;34.10;;
13255;SDS011;37913;48.370;10.930;2023-04-03T08:10:31;79.47;;;34.20;;
13255;SDS011;37913;48.370;10.930;2023-04-03T08:12:59;81.50;;;34.70;;
13255;SDS011;37913;48.370;10.930;2023-04-03T08:15:27;75.53;;;33.13;;
13255;SDS011;37913;48.370;10.930;2023-04-03T08:17:56;79.50;;;33.83;;
13255;SDS011;37913;48.370;10.930;2023-04-03T08:20:25;83.70;;;34.78;;
13255;SDS011;37913;48.370;10.930;2023-04-03T08:23:02;78.82;;;34.10;;
13255;SDS011;37913;48.370;10.930;2023-04-03T08:25:30;79.05;;;34.22;;
13255;SDS011;37913;48.370;10.930;2023-04-03T08:27:58;87.55;;;35.30;;
13255;SDS011;37913;48.370;10.930;2023-04-03T08:30:27;75.78;;;32.70;;
13255;SDS011;37913;48.370;10.930;2023-04-03T08:32:55;72.65;;;32.60;;
13255;SDS011;37913;48.370;10.930;2023-04-03T08:35:22;75.38;;;32.95;;
13255;SDS011;37913;48.370;10.930;2023-04-03T08:37:49;76.60;;;33.33;;
13255;SDS011;37913;48.370;10.930;2023-04-03T08:40:17;78.45;;;33.65;;
13255;SDS011;37913;48.370;10.930;2023-04-03T08:42:47;77.75;;;33.60;;
13255;SDS011;37913;48.370;10.930;2023-04-03T08:45:21;76.55;;;33.13;;
13255;SDS011;37913;48.370;10.930;2023-04-03T08:47:57;80.65;;;33.53;;
13255;SDS011;37913;48.370;10.930;2023-04-03T08:50:36;77.10;;;33.20;;
13255;SDS011;37913;48.370;10.930;2023-04-03T08:53:14;74.47;;;32.22;;
13255;SDS011;37913;48.370;10.930;2023-04-03T08:55:46;79.13;;;32.35;;
13255;SDS011;37913;48.370;10.930;2023-04-03T08:58:15;79.40;;;33.45;;
13255;SDS011;37913;48.370;10.930;2023-04-03T09:00:45;67.07;;;30.38;;
13255;SDS011;37913;48.370;10.930;2023-04-03T09:03:18;72.22;;;32.25;;
13255;SDS011;37913;48.370;10.930;2023-04-03T09:05:48;80.95;;;33.83;;
13255;SDS011;37913;48.370;10.930;2023-04-03T09:08:22;79.88;;;33.95;;
13255;SDS011;37913;48.370;10.930;2023-04-03T09:10:55;83.05;;;33.42;;
13255;SDS011;37913;48.370;10.930;2023-04-03T09:13:30;75.07;;;33.10;;
13255;SDS011;37913;48.370;10.930;2023-04-03T09:16:12;76.25;;;33.65;;
13255;SDS011;37913;48.370;10.930;2023-04-03T09:19:02;76.40;;;33.20;;
13255;SDS011;37913;48.370;10.930;2023-04-03T09:21:43;81.72;;;34.40;;
13255;SDS011;37913;48.370;10.930;2023-04-03T09:24:16;83.15;;;34.72;;
13255;SDS011;37913;48.370;10.930;2023-04-03T09:26:46;79.45;;;34.35;;
13255;SDS011;37913;48.370;10.930;2023-04-03T09:29:20;75.75;;;32.75;;
13255;SDS011;37913;48.370;10.930;2023-04-03T09:31:55;80.05;;;33.58;;
13255;SDS011;37913;48.370;10.930;2023-04-03T09:34:27;78.25;;;34.05;;
13255;SDS011;37913;48.370;10.930;2023-04-03T09:37:00;84.45;;;34.58;;
13255;SDS011;37913;48.370;10.930;2023-04-03T09:39:31;75.95;;;33.28;;
13255;SDS011;37913;48.370;10.930;2023-04-03T09:42:16;79.55;;;34.08;;
13255;SDS011;37913;48.370;10.930;2023-04-03T09:44:52;90.00;;;36.03;;
13255;SDS011;37913;48.370;10.930;2023-04-03T09:47:24;91.57;;;36.50;;
13255;SDS011;37913;48.370;10.930;2023-04-03T09:49:56;87.28;;;35.50;;
13255;SDS011;37913;48.370;10.930;2023-04-03T09:52:46;77.60;;;33.55;;
13255;SDS011;37913;48.370;10.930;2023-04-03T09:55:17;85.03;;;34.97;;
13255;SDS011;37913;48.370;10.930;2023-04-03T09:57:48;74.05;;;32.90;;
13255;SDS011;37913;48.370;10.930;2023-04-03T10:00:20;78.70;;;33.88;;
13255;SDS011;37913;48.370;10.930;2023-04-03T10:02:50;84.28;;;34.97;;
13255;SDS011;37913;48.370;10.930;2023-04-03T10:05:28;74.03;;;32.65;;
13255;SDS011;37913;48.370;10.930;2023-04-03T10:08:11;73.65;;;33.35;;
13255;SDS011;37913;48.370;10.930;2023-04-03T10:11:04;70.20;;;31.65;;
13255;SDS011;37913;48.370;10.930;2023-04-03T10:13:36;83.22;;;35.20;;
13255;SDS011;37913;48.370;10.930;2023-04-03T10:16:16;83.47;;;34.85;;
13255;SDS011;37913;48.370;10.930;2023-04-03T10:18:46;85.85;;;34.97;;
13255;SDS011;37913;48.370;10.930;2023-04-03T10:21:21;79.07;;;34.13;;
13255;SDS011;37913;48.370;10.930;2023-04-03T10:24:02;86.45;;;34.92;;
13255;SDS011;37913;48.370;10.930;2023-04-03T10:26:37;82.43;;;34.38;;
13255;SDS011;37913;48.370;10.930;2023-04-03T10:29:30;74.88;;;32.85;;
13255;SDS011;37913;48.370;10.930;2023-04-03T10:32:15;78.75;;;33.00;;
13255;SDS011;37913;48.370;10.930;2023-04-03T10:34:51;90.95;;;35.22;;
13255;SDS011;37913;48.370;10.930;2023-04-03T10:37:24;84.78;;;34.25;;
13255;SDS011;37913;48.370;10.930;2023-04-03T10:40:02;77.63;;;33.17;;
13255;SDS011;37913;48.370;10.930;2023-04-03T10:42:37;73.97;;;32.72;;
13255;SDS011;37913;48.370;10.930;2023-04-03T10:45:20;72.40;;;32.38;;
13255;SDS011;37913;48.370;10.930;2023-04-03T10:47:55;72.07;;;32.00;;
13255;SDS011;37913;48.370;10.930;2023-04-03T10:50:31;83.53;;;34.35;;
13255;SDS011;37913;48.370;10.930;2023-04-03T10:53:08;73.95;;;32.58;;
13255;SDS011;37913;48.370;10.930;2023-04-03T10:55:46;81.15;;;33.92;;
13255;SDS011;37913;48.370;10.930;2023-04-03T10:58:19;80.32;;;33.67;;
13255;SDS011;37913;48.370;10.930;2023-04-03T11:00:53;84.82;;;35.10;;
13255;SDS011;37913;48.370;10.930;2023-04-03T11:03:27;92.07;;;35.90;;
13255;SDS011;37913;48.370;10.930;2023-04-03T11:06:01;82.05;;;33.88;;
13255;SDS011;37913;48.370;10.930;2023-04-03T11:08:36;76.18;;;33.13;;
13255;SDS011;37913;48.370;10.930;2023-04-03T11:11:09;89.22;;;34.42;;
13255;SDS011;37913;48.370;10.930;2023-04-03T11:13:43;86.32;;;34.45;;
13255;SDS011;37913;48.370;10.930;2023-04-03T11:16:19;80.78;;;34.08;;
13255;SDS011;37913;48.370;10.930;2023-04-03T11:18:52;73.40;;;32.42;;
13255;SDS011;37913;48.370;10.930;2023-04-03T11:21:23;78.88;;;33.03;;
13255;SDS011;37913;48.370;10.930;2023-04-03T11:23:57;75.38;;;32.72;;
13255;SDS011;37913;48.370;10.930;2023-04-03T11:26:31;87.07;;;35.40;;
13255;SDS011;37913;48.370;10.930;2023-04-03T11:29:04;86.88;;;34.97;;
13255;SDS011;37913;48.370;10.930;2023-04-03T11:31:41;85.13;;;34.58;;
13255;SDS011;37913;48.370;10.930;2023-04-03T11:34:21;77.97;;;33.25;;
13255;SDS011;37913;48.370;10.930;2023-04-03T11:36:59;80.33;;;33.73;;
13255;SDS011;37913;48.370;10.930;2023-04-03T11:39:28;80.22;;;33.65;;
13255;SDS011;37913;48.370;10.930;2023-04-03T11:42:12;89.88;;;35.33;;
13255;SDS011;37913;48.370;10.930;2023-04-03T11:44:41;93.82;;;36.38;;
13255;SDS011;37913;48.370;10.930;2023-04-03T11:47:10;83.60;;;34.53;;
13255;SDS011;37913;48.370;10.930;2023-04-03T11:50:00;84.32;;;34.53;;
13255;SDS011;37913;48.370;10.930;2023-04-03T11:58:18;76.68;;;32.88;;
13255;SDS011;37913;48.370;10.930;2023-04-03T12:00:52;76.00;;;33.05;;
13255;SDS011;37913;48.370;10.930;2023-04-03T12:12:55;72.03;;;31.83;;
13255;SDS011;37913;48.370;10.930;2023-04-03T12:15:38;76.13;;;32.50;;
13255;SDS011;37913;48.370;10.930;2023-04-03T12:24:27;77.45;;;33.33;;
13255;SDS011;37913;48.370;10.930;2023-04-03T12:27:03;85.55;;;34.72;;
13255;SDS011;37913;48.370;10.930;2023-04-03T12:29:41;75.00;;;33.67;;
13255;SDS011;37913;48.370;10.930;2023-04-03T12:32:17;88.97;;;35.47;;
13255;SDS011;37913;48.370;10.930;2023-04-03T12:34:58;97.75;;;37.72;;
13255;SDS011;37913;48.370;10.930;2023-04-03T12:37:40;76.85;;;34.80;;
13255;SDS011;37913;48.370;10.930;2023-04-03T12:40:21;97.63;;;41.10;;
13255;SDS011;37913;48.370;10.930;2023-04-03T12:43:20;81.20;;;40.97;;
13255;SDS011;37913;48.370;10.930;2023-04-03T12:46:10;88.40;;;39.60;;
13255;SDS011;37913;48.370;10.930;2023-04-03T12:48:47;84.78;;;42.60;;
13255;SDS011;37913;48.370;10.930;2023-04-03T12:51:17;89.70;;;39.42;;
13255;SDS011;37913;48.370;10.930;2023-04-03T12:53:46;98.18;;;42.45;;
13255;SDS011;37913;48.370;10.930;2023-04-03T12:56:19;85.65;;;39.17;;
13255;SDS011;37913;48.370;10.930;2023-04-03T12:58:53;88.00;;;38.72;;
13255;SDS011;37913;48.370;10.930;2023-04-03T13:01:23;87.53;;;39.58;;
13255;SDS011;37913;48.370;10.930;2023-04-03T13:03:52;94.07;;;41.88;;
13255;SDS011;37913;48.370;10.930;2023-04-03T13:06:21;95.47;;;43.47;;
13255;SDS011;37913;48.370;10.930;2023-04-03T13:08:51;96.75;;;44.90;;
13255;SDS011;37913;48.370;10.930;2023-04-03T13:11:22;119.07;;;47.70;;
13255;SDS011;37913;48.370;10.930;2023-04-03T13:13:56;106.03;;;44.13;;
13255;SDS011;37913;48.370;10.930;2023-04-03T13:16:25;122.00;;;46.45;;
13255;SDS011;37913;48.370;10.930;2023-04-03T13:18:53;137.50;;;49.40;;
13255;SDS011;37913;48.370;10.930;2023-04-03T13:21:21;103.38;;;43.38;;
13255;SDS011;37913;48.370;10.930;2023-04-03T13:23:57;116.00;;;44.05;;
13255;SDS011;37913;48.370;10.930;2023-04-03T13:26:29;96.30;;;41.05;;
13255;SDS011;37913;48.370;10.930;2023-04-03T13:29:02;99.45;;;39.78;;
13255;SDS011;37913;48.370;10.930;2023-04-03T13:31:34;96.13;;;37.95;;
13255;SDS011;37913;48.370;10.930;2023-04-03T13:34:03;90.57;;;37.25;;
13255;SDS011;37913;48.370;10.930;2023-04-03T13:36:34;89.68;;;36.47;;
13255;SDS011;37913;48.370;10.930;2023-04-03T13:39:03;111.22;;;40.00;;
13255;SDS011;37913;48.370;10.930;2023-04-03T13:41:34;87.28;;;34.72;;
13255;SDS011;37913;48.370;10.930;2023-04-03T13:44:16;82.90;;;33.92;;
13255;SDS011;37913;48.370;10.930;2023-04-03T13:46:44;93.10;;;35.92;;
13255;SDS011;37913;48.370;10.930;2023-04-03T13:49:18;91.10;;;36.10;;
13255;SDS011;37913;48.370;10.930;2023-04-03T13:51:49;82.28;;;33.97;;
13255;SDS011;37913;48.370;10.930;2023-04-03T13:54:18;89.43;;;35.55;;
13255;SDS011;37913;48.370;10.930;2023-04-03T13:56:52;91.50;;;35.95;;
13255;SDS011;37913;48.370;10.930;2023-04-03T13:59:24;111.90;;;40.75;;
13255;SDS011;37913;48.370;10.930;2023-04-03T14:01:55;93.82;;;37.08;;
13255;SDS011;37913;48.370;10.930;2023-04-03T14:04:48;98.25;;;38.40;;
13255;SDS011;37913;48.370;10.930;2023-04-03T14:07:18;89.15;;;36.20;;
13255;SDS011;37913;48.370;10.930;2023-04-03T14:09:50;85.18;;;35.88;;
13255;SDS011;37913;48.370;10.930;2023-04-03T14:12:18;87.57;;;35.88;;
13255;SDS011;37913;48.370;10.930;2023-04-03T14:14:52;100.88;;;38.65;;
13255;SDS011;37913;48.370;10.930;2023-04-03T14:17:22;88.00;;;36.25;;
13255;SDS011;37913;48.370;10.930;2023-04-03T14:19:52;76.68;;;33.95;;
13255;SDS011;37913;48.370;10.930;2023-04-03T14:22:21;94.00;;;37.55;;
13255;SDS011;37913;48.370;10.930;2023-04-03T14:24:50;90.15;;;36.55;;
13255;SDS011;37913;48.370;10.930;2023-04-03T14:27:18;86.38;;;35.83;;
13255;SDS011;37913;48.370;10.930;2023-04-03T14:29:47;83.85;;;35.97;;
13255;SDS011;37913;48.370;10.930;2023-04-03T14:32:17;85.15;;;36.38;;
13255;SDS011;37913;48.370;10.930;2023-04-03T14:34:46;96.35;;;38.30;;
13255;SDS011;37913;48.370;10.930;2023-04-03T14:37:19;87.50;;;36.58;;
13255;SDS011;37913;48.370;10.930;2023-04-03T14:39:48;77.57;;;34.42;;
13255;SDS011;37913;48.370;10.930;2023-04-03T14:42:17;90.22;;;36.55;;
13255;SDS011;37913;48.370;10.930;2023-04-03T14:44:45;122.30;;;42.95;;
13255;SDS011;37913;48.370;10.930;2023-04-03T14:47:13;93.18;;;37.85;;
13255;SDS011;37913;48.370;10.930;2023-04-03T14:49:43;102.93;;;39.05;;
13255;SDS011;37913;48.370;10.930;2023-04-03T14:52:16;96.05;;;37.72;;